Time;durP1;ratioP1;P1;durP2;ratioP2;P2;SDS_P1;SDS_P2;PMS_P1;PMS_P2;Temp;Humidity;BMP_temperature;BMP_pressure;BME280_temperature;BME280_humidity;BME280_pressure;Samples;Min_cycle;Max_cycle;Signal;HPM_P1;HPM_P2
2022/06/22 00:02:37;;;;;;;9.70;9.00;;;21.00;99.90;;;;;;4949353;28;21571;-89
2022/06/22 00:05:47;;;;;;;10.30;9.57;;;21.00;99.90;;;;;;4950864;28;20472;-90
2022/06/22 00:08:26;;;;;;;10.33;9.33;;;20.90;99.90;;;;;;4943810;28;20660;-90
2022/06/22 00:11:04;;;;;;;9.33;8.60;;;20.60;99.90;;;;;;4944077;28;20453;-90
2022/06/22 00:13:31;;;;;;;10.40;9.57;;;20.50;99.90;;;;;;4966067;28;20443;-90
2022/06/22 00:16:15;;;;;;;10.53;9.63;;;20.40;99.90;;;;;;4965619;28;20822;-89
2022/06/22 00:18:46;;;;;;;9.67;8.87;;;20.40;99.90;;;;;;4951980;28;20444;-90
2022/06/22 00:21:28;;;;;;;10.20;9.50;;;20.40;99.90;;;;;;4939722;28;20468;-90
2022/06/22 00:23:59;;;;;;;10.10;9.30;;;20.40;99.90;;;;;;4965399;28;20593;-90
2022/06/22 00:26:24;;;;;;;10.63;9.83;;;20.40;99.90;;;;;;4963256;28;20441;-89
2022/06/22 00:28:56;;;;;;;10.57;9.77;;;20.30;99.90;;;;;;4946296;28;20429;-89
2022/06/22 00:31:44;;;;;;;10.97;10.27;;;20.20;99.90;;;;;;4943522;28;20187;-90
2022/06/22 00:34:10;;;;;;;10.73;9.63;;;20.10;99.90;;;;;;4946851;28;20436;-90
2022/06/22 00:36:54;;;;;;;10.20;9.40;;;20.10;99.90;;;;;;4946250;28;20445;-89
2022/06/22 00:40:08;;;;;;;10.80;9.90;;;20.40;99.90;;;;;;4963714;28;20210;-90
2022/06/22 00:42:49;;;;;;;11.03;10.03;;;20.40;99.90;;;;;;4941034;28;20524;-89
2022/06/22 00:45:36;;;;;;;11.20;10.30;;;20.30;99.90;;;;;;4959264;28;20909;-89
2022/06/22 00:48:07;;;;;;;11.07;10.03;;;20.30;99.90;;;;;;4951411;28;20523;-90
2022/06/22 00:50:47;;;;;;;10.30;9.40;;;20.20;99.90;;;;;;4950981;28;20507;-89
2022/06/22 00:53:21;;;;;;;12.10;11.10;;;20.20;99.90;;;;;;4967443;28;20452;-89
2022/06/22 00:55:57;;;;;;;11.77;10.90;;;20.10;99.90;;;;;;4965101;28;20556;-89
2022/06/22 00:58:46;;;;;;;11.80;10.80;;;20.20;99.90;;;;;;4949653;28;20794;-89
2022/06/22 01:01:37;;;;;;;10.67;9.67;;;20.20;99.90;;;;;;4948941;28;21013;-89
2022/06/22 01:04:32;;;;;;;11.80;10.80;;;20.10;99.90;;;;;;4940978;28;20456;-89
2022/06/22 01:07:29;;;;;;;12.07;11.07;;;20.10;99.90;;;;;;4929285;28;20449;-90
2022/06/22 01:10:16;;;;;;;13.37;12.30;;;20.20;99.90;;;;;;4971489;28;20444;-88
2022/06/22 01:13:23;;;;;;;14.03;12.67;;;20.50;99.90;;;;;;4952945;28;20452;-89
2022/06/22 01:16:11;;;;;;;12.87;11.87;;;20.70;99.90;;;;;;4949691;28;20448;-89
2022/06/22 01:19:18;;;;;;;11.80;10.90;;;20.80;99.90;;;;;;4950718;28;20442;-90
2022/06/22 01:21:49;;;;;;;12.73;11.83;;;20.80;99.90;;;;;;4950667;28;20437;-89
2022/06/22 01:24:20;;;;;;;10.77;9.87;;;20.70;99.90;;;;;;4951860;28;20476;-89
2022/06/22 01:27:23;;;;;;;12.30;11.30;;;20.50;99.90;;;;;;4950862;28;20448;-89
2022/06/22 01:29:56;;;;;;;13.40;12.13;;;20.30;99.90;;;;;;4952214;28;20441;-89
2022/06/22 01:32:37;;;;;;;11.73;10.83;;;20.20;99.90;;;;;;4960059;28;20444;-89
2022/06/22 01:35:21;;;;;;;12.60;11.50;;;20.20;99.90;;;;;;4955124;28;20810;-89
2022/06/22 01:37:47;;;;;;;12.30;11.40;;;20.10;99.90;;;;;;4965315;28;20830;-90
2022/06/22 01:40:24;;;;;;;18.60;12.60;;;20.20;99.90;;;;;;4938094;28;20452;-89
2022/06/22 01:43:34;;;;;;;12.53;11.63;;;20.30;99.90;;;;;;4951017;28;20559;-89
2022/06/22 01:46:10;;;;;;;12.93;10.70;;;20.40;99.90;;;;;;4946654;28;20490;-90
2022/06/22 01:48:43;;;;;;;11.57;10.60;;;20.50;99.90;;;;;;4953802;28;20452;-89
2022/06/22 01:51:17;;;;;;;12.00;11.00;;;20.60;99.90;;;;;;4952563;28;20970;-89
2022/06/22 01:54:04;;;;;;;11.90;10.90;;;20.70;99.90;;;;;;4968488;28;20539;-89
2022/06/22 01:56:37;;;;;;;12.57;11.43;;;20.80;99.90;;;;;;4951433;28;20446;-89
2022/06/22 01:59:24;;;;;;;12.63;11.50;;;20.90;99.90;;;;;;4941239;28;20452;-89
2022/06/22 02:02:27;;;;;;;12.30;11.40;;;20.90;99.90;;;;;;4953126;28;20441;-89
2022/06/22 02:05:21;;;;;;;11.83;10.63;;;20.80;99.90;;;;;;4954559;28;20477;-90
2022/06/22 02:07:58;;;;;;;12.23;10.93;;;20.80;99.90;;;;;;4948604;28;20447;-89
2022/06/22 02:10:36;;;;;;;12.60;11.50;;;20.80;99.90;;;;;;4944125;28;20440;-89
2022/06/22 02:13:20;;;;;;;13.40;12.30;;;21.00;99.90;;;;;;4969572;28;20822;-90
2022/06/22 02:16:13;;;;;;;14.50;13.37;;;20.90;99.90;;;;;;4954733;28;20443;-90
2022/06/22 02:18:57;;;;;;;13.97;12.77;;;20.60;99.90;;;;;;4965232;28;20488;-89
2022/06/22 02:21:40;;;;;;;14.50;13.30;;;20.40;99.90;;;;;;4945909;28;20471;-90
2022/06/22 02:24:13;;;;;;;14.47;13.17;;;20.30;99.90;;;;;;4949417;28;21271;-90
2022/06/22 02:26:58;;;;;;;13.97;12.47;;;20.30;99.90;;;;;;4964084;28;20459;-89
2022/06/22 02:29:28;;;;;;;14.20;13.00;;;20.30;99.90;;;;;;4946527;28;20528;-89
2022/06/22 02:31:59;;;;;;;13.23;12.20;;;20.30;99.90;;;;;;4952977;28;20448;-90
2022/06/22 02:34:25;;;;;;;13.37;12.17;;;20.30;99.90;;;;;;4950299;28;21230;-90
2022/06/22 02:36:57;;;;;;;14.27;13.10;;;20.40;99.90;;;;;;4946732;28;20544;-90
2022/06/22 02:39:24;;;;;;;13.97;12.93;;;20.40;99.90;;;;;;4948020;28;20202;-90
2022/06/22 02:44:41;;;;;;;14.27;12.97;;;19.90;99.90;;;;;;4961506;28;20895;-90
2022/06/22 02:47:26;;;;;;;14.80;13.70;;;19.90;99.90;;;;;;4964019;28;20455;-90
2022/06/22 02:50:03;;;;;;;15.03;13.70;;;20.00;99.90;;;;;;4947708;28;20792;-89
2022/06/22 02:52:36;;;;;;;14.07;12.70;;;20.10;99.90;;;;;;4962562;28;20469;-89
2022/06/22 02:55:04;;;;;;;15.73;14.43;;;20.10;99.90;;;;;;4947343;28;21085;-90
2022/06/22 02:57:46;;;;;;;14.70;13.60;;;20.10;99.90;;;;;;4949563;28;21608;-90
2022/06/22 03:00:16;;;;;;;14.70;13.47;;;20.00;99.90;;;;;;4950061;28;20496;-89
2022/06/22 03:02:43;;;;;;;15.70;14.40;;;20.10;99.90;;;;;;4964734;28;23469;-89
2022/06/22 03:05:10;;;;;;;15.27;13.97;;;20.10;99.90;;;;;;4950907;28;20444;-90
2022/06/22 03:07:44;;;;;;;15.00;13.73;;;20.10;99.90;;;;;;4951581;28;20513;-89
2022/06/22 03:10:31;;;;;;;16.50;15.10;;;20.00;99.90;;;;;;4950211;28;20547;-91
2022/06/22 03:12:59;;;;;;;16.73;15.27;;;20.00;99.90;;;;;;4951373;28;20569;-89
2022/06/22 03:15:30;;;;;;;15.87;14.67;;;20.00;99.90;;;;;;4951467;28;20848;-89
2022/06/22 03:17:59;;;;;;;15.47;14.10;;;20.00;99.90;;;;;;4929853;28;20448;-89
2022/06/22 03:20:41;;;;;;;14.67;13.57;;;20.10;99.90;;;;;;4948144;28;20528;-89
2022/06/22 03:23:26;;;;;;;16.33;15.10;;;20.10;99.90;;;;;;4943313;28;21067;-90
2022/06/22 03:26:27;;;;;;;14.90;13.60;;;20.00;99.90;;;;;;4946016;28;23902;-90
2022/06/22 03:29:03;;;;;;;14.83;13.67;;;19.90;99.90;;;;;;4948438;28;20455;-89
2022/06/22 03:31:53;;;;;;;16.67;15.17;;;19.90;99.90;;;;;;4948481;28;20449;-90
2022/06/22 03:34:23;;;;;;;15.30;14.00;;;19.90;99.90;;;;;;4946871;28;20547;-90
2022/06/22 03:36:58;;;;;;;15.57;14.30;;;20.00;99.90;;;;;;4938088;28;20442;-90
2022/06/22 03:39:28;;;;;;;15.57;14.37;;;20.00;99.90;;;;;;4948773;28;20444;-89
2022/06/22 03:42:09;;;;;;;15.50;14.03;;;20.00;99.90;;;;;;4946612;28;20532;-90
2022/06/22 03:44:42;;;;;;;15.47;14.30;;;20.00;99.90;;;;;;4961817;28;20445;-90
2022/06/22 03:47:21;;;;;;;16.17;14.77;;;20.00;99.90;;;;;;4948463;28;20440;-90
2022/06/22 03:50:01;;;;;;;14.80;13.63;;;20.20;99.90;;;;;;4948422;28;20454;-90
2022/06/22 03:52:40;;;;;;;14.80;13.40;;;20.30;99.90;;;;;;4947388;28;20461;-90
2022/06/22 03:55:29;;;;;;;15.40;14.10;;;20.30;99.90;;;;;;4951048;28;20587;-89
2022/06/22 03:57:57;;;;;;;16.13;14.80;;;20.10;99.90;;;;;;4942960;28;20515;-89
2022/06/22 04:00:23;;;;;;;17.10;15.67;;;20.00;99.90;;;;;;4956075;28;20542;-90
2022/06/22 04:02:49;;;;;;;15.57;14.17;;;20.00;99.90;;;;;;4948025;28;20445;-89
2022/06/22 04:05:26;;;;;;;15.27;14.17;;;20.00;99.90;;;;;;4944072;28;20954;-94
2022/06/22 04:07:53;;;;;;;15.50;14.20;;;20.10;99.90;;;;;;4958386;28;20971;-96
2022/06/22 04:10:37;;;;;;;15.77;14.60;;;20.20;99.90;;;;;;4956128;28;20444;-96
2022/06/22 04:13:09;;;;;;;16.90;14.60;;;20.40;99.90;;;;;;4949180;28;20448;-95
2022/06/22 04:15:41;;;;;;;15.27;13.93;;;20.50;99.90;;;;;;4954142;28;20480;-95
2022/06/22 04:18:13;;;;;;;15.07;14.00;;;20.50;99.90;;;;;;4967777;28;20437;-95
2022/06/22 04:20:54;;;;;;;16.23;14.87;;;20.50;99.90;;;;;;4947014;28;20452;-89
2022/06/22 04:23:38;;;;;;;16.43;15.03;;;20.50;99.90;;;;;;4965114;28;20682;-88
2022/06/22 04:26:24;;;;;;;16.20;14.80;;;20.50;99.90;;;;;;4952973;28;20451;-89
2022/06/22 04:29:24;;;;;;;15.77;14.33;;;20.50;99.90;;;;;;4960103;28;20446;-89
2022/06/22 04:32:17;;;;;;;15.60;14.30;;;20.50;99.90;;;;;;4927874;28;20545;-89
2022/06/22 04:34:53;;;;;;;14.17;13.00;;;20.50;99.90;;;;;;4923205;28;20474;-88
2022/06/22 04:37:25;;;;;;;16.73;15.33;;;20.50;99.90;;;;;;4964768;28;20993;-89
2022/06/22 04:40:10;;;;;;;16.20;14.77;;;20.50;99.90;;;;;;4955666;28;20453;-89
2022/06/22 04:42:36;;;;;;;16.93;15.53;;;20.20;99.90;;;;;;4951178;28;20475;-89
2022/06/22 04:45:03;;;;;;;17.43;15.93;;;20.10;99.90;;;;;;4959428;28;21677;-89
2022/06/22 04:47:33;;;;;;;18.33;16.73;;;20.20;99.90;;;;;;4977220;28;20184;-89
2022/06/22 04:50:06;;;;;;;17.90;16.40;;;20.10;99.90;;;;;;4976514;28;20421;-89
2022/06/22 04:52:35;;;;;;;16.97;15.50;;;20.10;99.90;;;;;;4965855;28;20791;-89
2022/06/22 04:55:04;;;;;;;16.73;15.50;;;20.20;99.90;;;;;;4958957;28;20551;-88
2022/06/22 04:57:38;;;;;;;16.80;15.30;;;20.20;99.90;;;;;;4958429;28;21029;-88
2022/06/22 05:00:20;;;;;;;17.37;15.90;;;20.50;99.90;;;;;;4953468;28;20455;-88
2022/06/22 05:02:48;;;;;;;17.50;16.20;;;20.50;99.90;;;;;;4974409;28;20543;-89
2022/06/22 05:05:24;;;;;;;17.37;15.87;;;20.60;99.90;;;;;;4949856;28;20448;-88
2022/06/22 05:07:52;;;;;;;18.40;16.70;;;20.70;99.90;;;;;;4955380;28;20460;-89
2022/06/22 05:10:54;;;;;;;16.20;14.90;;;20.70;99.90;;;;;;4955142;28;20463;-89
2022/06/22 05:13:27;;;;;;;15.83;14.63;;;20.80;99.90;;;;;;4958017;28;20460;-89
2022/06/22 05:15:56;;;;;;;15.63;14.10;;;20.80;99.90;;;;;;4939813;28;20865;-89
2022/06/22 05:18:25;;;;;;;17.30;15.87;;;20.80;99.90;;;;;;4967794;28;20954;-89
2022/06/22 05:20:56;;;;;;;15.10;14.00;;;21.00;99.90;;;;;;4958738;28;20446;-88
2022/06/22 05:23:28;;;;;;;16.13;14.60;;;21.20;99.90;;;;;;4949909;28;20448;-88
2022/06/22 05:26:05;;;;;;;17.10;15.70;;;21.20;99.90;;;;;;4951485;28;20475;-88
2022/06/22 05:28:43;;;;;;;15.67;14.27;;;21.40;99.90;;;;;;4949812;28;20860;-88
2022/06/22 05:31:13;;;;;;;14.80;13.50;;;21.50;99.90;;;;;;4962688;28;20531;-88
2022/06/22 05:33:44;;;;;;;16.53;14.77;;;21.70;99.90;;;;;;4951172;28;20490;-88
2022/06/22 05:36:11;;;;;;;15.60;14.27;;;21.80;99.90;;;;;;4953732;28;20504;-87
2022/06/22 05:38:44;;;;;;;14.30;13.10;;;22.00;99.90;;;;;;4963521;28;20469;-88
2022/06/22 05:41:15;;;;;;;16.20;14.90;;;22.20;99.90;;;;;;4941770;28;20453;-90
2022/06/22 05:43:41;;;;;;;16.10;14.87;;;22.30;99.90;;;;;;4981380;28;20432;-90
2022/06/22 05:46:34;;;;;;;16.43;15.03;;;22.40;99.90;;;;;;4969960;28;20476;-90
2022/06/22 05:49:08;;;;;;;16.10;14.80;;;22.10;99.90;;;;;;4966305;28;20456;-91
2022/06/22 05:51:43;;;;;;;17.33;15.73;;;21.90;99.90;;;;;;4957880;28;20441;-89
2022/06/22 05:54:46;;;;;;;16.90;15.10;;;21.90;99.90;;;;;;4958650;28;23872;-95
2022/06/22 05:57:24;;;;;;;15.47;14.13;;;22.10;99.90;;;;;;4970325;28;20440;-93
2022/06/22 06:00:35;;;;;;;17.47;15.77;;;22.10;99.90;;;;;;4958299;28;20466;-91
2022/06/22 06:03:27;;;;;;;17.37;15.97;;;22.20;99.90;;;;;;4957849;28;20436;-92
2022/06/22 06:06:25;;;;;;;17.57;16.00;;;22.00;99.90;;;;;;4973970;28;20491;-94
2022/06/22 06:09:06;;;;;;;18.07;16.60;;;21.90;99.90;;;;;;4958300;28;20444;-90
2022/06/22 06:11:46;;;;;;;18.73;16.93;;;21.60;99.90;;;;;;4948793;28;20437;-90
2022/06/22 06:14:43;;;;;;;18.03;16.23;;;21.30;99.90;;;;;;4960529;28;20532;-93
2022/06/22 06:17:35;;;;;;;15.70;14.33;;;21.10;99.90;;;;;;4952903;28;20437;-91
2022/06/22 06:20:31;;;;;;;16.30;14.97;;;21.10;99.90;;;;;;4967282;28;20503;-90
2022/06/22 06:23:13;;;;;;;16.00;14.60;;;20.90;99.90;;;;;;4973362;28;20440;-89
2022/06/22 06:29:17;;;;;;;16.63;15.03;;;20.60;99.90;;;;;;4969623;28;20978;-89
2022/06/22 06:32:08;;;;;;;16.73;15.23;;;20.50;99.90;;;;;;4954415;28;20464;-89
2022/06/22 06:35:21;;;;;;;17.53;15.93;;;20.30;99.90;;;;;;4950709;28;20484;-90
2022/06/22 06:38:01;;;;;;;18.07;16.40;;;20.30;99.90;;;;;;4945782;28;20444;-90
2022/06/22 06:40:46;;;;;;;17.63;16.23;;;20.20;99.90;;;;;;4952676;28;20448;-90
2022/06/22 06:43:44;;;;;;;20.30;18.50;;;20.10;99.90;;;;;;4968834;28;20764;-89
2022/06/22 06:46:46;;;;;;;18.63;17.13;;;20.10;99.90;;;;;;4966996;28;20452;-90
2022/06/22 06:49:45;;;;;;;17.77;16.13;;;20.00;99.90;;;;;;4957162;28;20573;-91
2022/06/22 06:52:59;;;;;;;18.40;16.80;;;20.00;99.90;;;;;;4951986;28;20452;-91
2022/06/22 06:55:44;;;;;;;17.23;15.80;;;20.10;99.90;;;;;;4958173;28;20523;-91
2022/06/22 06:58:11;;;;;;;17.50;16.20;;;20.20;99.90;;;;;;4971766;28;20443;-94
2022/06/22 07:03:58;;;;;;;17.30;15.90;;;20.20;99.90;;;;;;5325928;23;20507;-91
2022/06/22 07:06:25;;;;;;;20.50;18.40;;;20.20;99.90;;;;;;4944467;28;21721;-91
2022/06/22 07:09:12;;;;;;;19.60;17.90;;;20.30;99.90;;;;;;4969309;28;20491;-92
2022/06/22 07:11:49;;;;;;;16.60;15.30;;;20.30;99.90;;;;;;4955424;28;20507;-90
2022/06/22 07:14:24;;;;;;;15.87;14.30;;;20.40;99.90;;;;;;4974515;28;20476;-91
2022/06/22 07:16:55;;;;;;;14.40;13.20;;;20.50;99.90;;;;;;4974119;28;20476;-91
2022/06/22 07:19:27;;;;;;;13.43;12.37;;;20.50;99.90;;;;;;4956521;28;20880;-91
2022/06/22 07:22:31;;;;;;;13.53;12.40;;;20.70;99.90;;;;;;4964244;28;20449;-92
2022/06/22 07:25:06;;;;;;;13.73;12.57;;;20.90;99.90;;;;;;4972804;28;20444;-90
2022/06/22 07:27:44;;;;;;;14.10;12.83;;;21.00;99.90;;;;;;4953447;28;20452;-91
2022/06/22 07:30:20;;;;;;;13.50;12.40;;;21.10;99.90;;;;;;4971289;28;20599;-89
2022/06/22 07:32:53;;;;;;;14.07;13.07;;;21.10;99.90;;;;;;4978125;28;20795;-91
2022/06/22 07:35:56;;;;;;;14.63;13.13;;;21.10;99.90;;;;;;4953633;28;20832;-90
2022/06/22 07:39:00;;;;;;;15.33;13.20;;;21.10;99.90;;;;;;4976063;28;20448;-90
2022/06/22 07:41:28;;;;;;;15.23;13.93;;;21.20;99.90;;;;;;4971867;28;20444;-90
2022/06/22 07:44:06;;;;;;;12.90;11.70;;;21.60;99.90;;;;;;4958851;28;20438;-90
2022/06/22 07:46:49;;;;;;;15.60;14.40;;;21.70;99.90;;;;;;4959346;28;20456;-91
2022/06/22 07:49:33;;;;;;;13.17;11.93;;;21.90;99.90;;;;;;4958887;28;20673;-91
2022/06/22 07:52:03;;;;;;;13.30;12.20;;;22.00;99.90;;;;;;4957515;28;20441;-88
2022/06/22 07:55:03;;;;;;;13.47;12.03;;;22.20;99.90;;;;;;4953742;28;20464;-88
2022/06/22 07:57:42;;;;;;;13.47;12.37;;;22.40;99.90;;;;;;4945303;28;20448;-90
2022/06/22 08:00:13;;;;;;;13.30;12.27;;;22.90;99.90;;;;;;4960396;28;20933;-88
2022/06/22 08:03:06;;;;;;;14.43;13.10;;;22.90;99.90;;;;;;4964029;28;20443;-88
2022/06/22 08:05:37;;;;;;;13.60;12.30;;;22.70;99.90;;;;;;4966162;28;20436;-89
2022/06/22 08:08:19;;;;;;;14.13;12.90;;;22.80;99.90;;;;;;4963870;28;20433;-88
2022/06/22 08:10:56;;;;;;;14.10;12.97;;;22.70;99.90;;;;;;4963553;28;20793;-88
2022/06/22 08:13:25;;;;;;;14.43;12.87;;;22.70;99.90;;;;;;4967355;28;20969;-88
2022/06/22 08:15:57;;;;;;;14.40;13.13;;;22.80;99.90;;;;;;4964867;28;20476;-88
2022/06/22 08:18:23;;;;;;;13.07;12.07;;;22.90;99.90;;;;;;4965149;28;20439;-87
2022/06/22 08:20:52;;;;;;;13.80;12.60;;;22.90;99.90;;;;;;4977707;28;21087;-87
2022/06/22 08:23:22;;;;;;;15.53;14.13;;;22.80;99.90;;;;;;4967205;28;20204;-87
2022/06/22 08:25:49;;;;;;;14.50;13.40;;;22.40;99.90;;;;;;4969851;28;20444;-89
2022/06/22 08:28:19;;;;;;;15.50;14.00;;;22.30;99.90;;;;;;4962311;28;20776;-88
2022/06/22 08:30:46;;;;;;;15.73;14.43;;;22.30;99.90;;;;;;4962131;28;20444;-88
2022/06/22 08:33:16;;;;;;;14.63;13.20;;;22.40;99.90;;;;;;4960642;28;20507;-89
2022/06/22 08:35:52;;;;;;;15.10;13.80;;;22.40;99.90;;;;;;4959724;28;20953;-88
2022/06/22 08:38:21;;;;;;;14.47;13.17;;;22.60;99.90;;;;;;4965783;28;20435;-87
2022/06/22 08:41:08;;;;;;;13.33;12.27;;;22.70;99.90;;;;;;4959093;28;20800;-89
2022/06/22 08:43:59;;;;;;;15.50;14.30;;;22.70;99.90;;;;;;4961160;28;20535;-88
2022/06/22 08:46:52;;;;;;;17.30;15.70;;;22.40;99.90;;;;;;4980565;28;20444;-87
2022/06/22 08:49:53;;;;;;;15.57;14.27;;;22.20;99.90;;;;;;4960348;28;20522;-88
2022/06/22 08:52:37;;;;;;;16.13;14.77;;;22.30;99.90;;;;;;4961644;28;20455;-87
2022/06/22 08:55:24;;;;;;;17.90;16.40;;;22.20;99.90;;;;;;4964470;28;20477;-88
2022/06/22 08:58:24;;;;;;;18.23;16.63;;;21.70;99.90;;;;;;4982907;28;20476;-87
2022/06/22 09:01:10;;;;;;;18.20;16.70;;;21.70;99.90;;;;;;4962702;28;20436;-86
2022/06/22 09:04:18;;;;;;;17.03;15.53;;;21.60;99.90;;;;;;4981214;28;20967;-87
2022/06/22 09:07:15;;;;;;;17.00;15.60;;;21.70;99.90;;;;;;4979589;28;20440;-90
2022/06/22 09:10:11;;;;;;;18.17;16.40;;;21.90;99.90;;;;;;4950517;28;20452;-88
2022/06/22 09:12:49;;;;;;;18.83;17.33;;;22.00;99.90;;;;;;4969559;28;20435;-87
2022/06/22 09:15:26;;;;;;;20.50;18.73;;;21.90;99.90;;;;;;4953214;28;20479;-87
2022/06/22 09:18:07;;;;;;;19.27;17.63;;;21.70;99.90;;;;;;4976618;28;20440;-88
2022/06/22 09:21:05;;;;;;;18.67;17.07;;;21.50;99.90;;;;;;4972175;28;21044;-88
2022/06/22 09:23:41;;;;;;;18.10;16.60;;;21.60;99.90;;;;;;4952624;28;20434;-88
2022/06/22 09:26:17;;;;;;;17.70;16.10;;;21.80;99.90;;;;;;4966723;28;20786;-88
2022/06/22 09:29:18;;;;;;;16.60;15.23;;;22.00;99.90;;;;;;4957988;28;20441;-87
2022/06/22 09:32:05;;;;;;;16.90;15.40;;;22.10;99.90;;;;;;4960940;28;20437;-87
2022/06/22 09:35:28;;;;;;;16.33;15.13;;;22.20;99.90;;;;;;4967128;28;21588;-96
2022/06/22 09:38:50;;;;;;;15.57;14.37;;;22.30;99.90;;;;;;4942831;28;20452;-92
2022/06/22 09:41:38;;;;;;;15.37;14.03;;;22.40;99.90;;;;;;4928619;28;20451;-92
2022/06/22 09:44:47;;;;;;;17.30;15.70;;;22.40;99.90;;;;;;4966049;28;21458;-91
2022/06/22 09:47:37;;;;;;;18.17;16.33;;;22.50;99.90;;;;;;4968733;28;20457;-92
2022/06/22 09:50:59;;;;;;;17.60;16.10;;;22.40;99.90;;;;;;4948179;28;20456;-93
2022/06/22 09:53:30;;;;;;;17.23;15.83;;;22.40;99.90;;;;;;4914386;28;21783;-91
2022/06/22 09:56:46;;;;;;;16.93;15.50;;;22.20;99.90;;;;;;4952909;28;20483;-92
2022/06/22 09:59:41;;;;;;;16.87;15.27;;;22.10;99.90;;;;;;4968468;28;20524;-93
2022/06/22 10:02:44;;;;;;;16.60;15.20;;;22.00;99.90;;;;;;4958253;28;20443;-91
2022/06/22 10:05:46;;;;;;;16.90;15.50;;;22.10;99.90;;;;;;4966562;28;20448;-93
2022/06/22 10:08:23;;;;;;;17.47;16.03;;;22.10;99.90;;;;;;4958741;28;20459;-92
2022/06/22 10:10:54;;;;;;;17.27;15.77;;;22.20;99.90;;;;;;4969688;28;20444;-91
2022/06/22 10:13:44;;;;;;;57.33;52.60;;;22.20;99.90;;;;;;4956960;28;20488;-89
2022/06/22 10:16:25;;;;;;;26.60;24.63;;;22.30;99.90;;;;;;4957289;28;20547;-91
2022/06/22 10:19:16;;;;;;;19.50;17.70;;;22.30;99.90;;;;;;4958662;28;20448;-89
2022/06/22 10:22:28;;;;;;;21.83;20.03;;;22.30;99.90;;;;;;4971942;28;20467;-89
2022/06/22 10:28:59;;;;;;;19.30;17.40;;;22.10;99.90;;;;;;4971495;28;20492;-94
2022/06/22 10:32:12;;;;;;;17.40;16.10;;;22.00;99.90;;;;;;4964389;28;20816;-90
2022/06/22 10:34:55;;;;;;;16.50;15.00;;;22.00;99.90;;;;;;4948753;28;20461;-90
2022/06/22 10:37:59;;;;;;;17.43;15.73;;;22.10;99.90;;;;;;4953183;28;20765;-92
2022/06/22 10:47:34;;;;;;;14.53;13.47;;;22.00;99.90;;;;;;4988196;28;20519;-93
2022/06/22 10:50:19;;;;;;;15.20;13.80;;;21.70;99.90;;;;;;4969477;28;20855;-90
2022/06/22 10:53:31;;;;;;;15.50;14.10;;;21.60;99.90;;;;;;4955224;28;20531;-94
2022/06/22 10:56:03;;;;;;;15.37;14.13;;;21.60;99.90;;;;;;4948236;28;20481;-93
2022/06/22 10:58:45;;;;;;;16.10;14.73;;;21.50;99.90;;;;;;4953458;28;20441;-92
2022/06/22 11:01:33;;;;;;;15.83;14.53;;;21.50;99.90;;;;;;4957284;28;20445;-91
2022/06/22 11:04:27;;;;;;;15.13;13.93;;;21.60;99.90;;;;;;4974189;28;20448;-92
2022/06/22 11:07:19;;;;;;;15.40;14.20;;;21.60;99.90;;;;;;4956960;28;20472;-92
2022/06/22 11:10:08;;;;;;;15.87;14.67;;;21.50;99.90;;;;;;4973026;28;20467;-91
2022/06/22 11:13:05;;;;;;;15.97;14.47;;;21.50;99.90;;;;;;4942672;28;20555;-93
2022/06/22 11:15:33;;;;;;;15.90;14.40;;;21.50;99.90;;;;;;4969965;28;20472;-91
2022/06/22 11:18:31;;;;;;;16.67;15.37;;;21.60;99.90;;;;;;4965265;28;20523;-91
2022/06/22 11:21:13;;;;;;;16.33;14.83;;;21.60;99.90;;;;;;4925255;28;20452;-91
2022/06/22 11:23:54;;;;;;;16.37;15.07;;;21.70;99.90;;;;;;4946243;28;20855;-91
2022/06/22 11:33:21;;;;;;;16.33;15.10;;;21.80;99.90;;;;;;4886537;29;20970;-92
2022/06/22 11:36:12;;;;;;;15.83;14.53;;;21.90;99.90;;;;;;4941933;28;20571;-93
2022/06/22 11:38:56;;;;;;;16.83;15.40;;;22.10;99.90;;;;;;4965521;28;20480;-92
2022/06/22 11:41:47;;;;;;;16.50;15.00;;;22.20;99.90;;;;;;4948010;28;20446;-92
2022/06/22 11:44:24;;;;;;;16.67;15.37;;;22.30;99.90;;;;;;4964358;28;21924;-92
2022/06/22 11:46:54;;;;;;;15.83;14.43;;;22.30;99.90;;;;;;4968156;28;20988;-91
2022/06/22 11:49:48;;;;;;;16.83;15.13;;;22.40;99.90;;;;;;4952394;28;20448;-89
2022/06/22 11:52:54;;;;;;;16.63;14.83;;;22.40;99.90;;;;;;4969233;28;20558;-90
2022/06/22 11:55:34;;;;;;;12.50;11.40;;;22.20;99.90;;;;;;4947734;28;20484;-88
2022/06/22 11:58:31;;;;;;;12.27;10.43;;;22.00;99.90;;;;;;4961747;28;20985;-90
2022/06/22 12:01:12;;;;;;;12.97;10.70;;;22.10;99.90;;;;;;4954803;28;20437;-89
2022/06/22 12:04:24;;;;;;;10.60;9.63;;;22.30;99.90;;;;;;4969091;28;20828;-91
2022/06/22 12:07:17;;;;;;;9.70;8.70;;;22.60;99.90;;;;;;4962302;28;20826;-92
2022/06/22 12:09:58;;;;;;;10.20;9.30;;;22.80;99.90;;;;;;4974324;28;20440;-91
2022/06/22 12:12:48;;;;;;;13.50;8.57;;;22.70;99.90;;;;;;4954432;28;20449;-93
2022/06/22 12:15:40;;;;;;;11.23;10.20;;;22.60;99.90;;;;;;4960862;28;20481;-94
2022/06/22 12:18:42;;;;;;;10.23;9.30;;;22.30;99.90;;;;;;4961709;28;20540;-94
2022/06/22 12:21:52;;;;;;;10.43;8.53;;;22.20;99.90;;;;;;4972484;28;21114;-93
2022/06/22 12:24:36;;;;;;;9.13;8.27;;;22.30;99.90;;;;;;4913297;28;20707;-91
2022/06/22 12:27:28;;;;;;;9.93;9.03;;;22.10;99.90;;;;;;4958274;28;20552;-91
2022/06/22 12:30:16;;;;;;;9.73;8.50;;;22.20;99.90;;;;;;4957844;28;20433;-94
2022/06/22 12:32:54;;;;;;;10.37;8.73;;;22.30;99.90;;;;;;4959354;28;20449;-92
2022/06/22 12:35:45;;;;;;;8.80;7.60;;;22.40;99.90;;;;;;4972657;28;20831;-94
2022/06/22 12:38:24;;;;;;;10.27;7.50;;;22.30;99.90;;;;;;4954835;28;20459;-93
2022/06/22 12:41:16;;;;;;;7.67;6.37;;;22.40;99.90;;;;;;4955841;28;20437;-94
2022/06/22 12:44:10;;;;;;;10.27;6.80;;;22.50;99.90;;;;;;4957761;28;20445;-94
2022/06/22 12:47:21;;;;;;;8.10;6.00;;;22.70;99.90;;;;;;4975446;28;20445;-92
2022/06/22 12:49:59;;;;;;;8.00;7.20;;;23.00;99.90;;;;;;4975038;28;20436;-91
2022/06/22 12:52:48;;;;;;;9.67;7.60;;;23.10;99.90;;;;;;4961894;28;20494;-95
2022/06/22 12:55:43;;;;;;;9.10;8.03;;;22.90;99.90;;;;;;4978600;28;20484;-94
2022/06/22 12:58:30;;;;;;;8.70;7.80;;;22.90;99.90;;;;;;4957440;28;20796;-94
2022/06/22 13:01:32;;;;;;;11.93;8.20;;;23.00;99.90;;;;;;4979978;28;20531;-94
2022/06/22 13:04:06;;;;;;;10.70;8.30;;;23.20;99.90;;;;;;4965632;28;20440;-93
2022/06/22 13:06:37;;;;;;;9.10;7.30;;;23.40;99.90;;;;;;4963182;28;20456;-93
2022/06/22 13:09:05;;;;;;;8.47;6.87;;;23.70;99.90;;;;;;4978592;28;20572;-92
2022/06/22 13:11:31;;;;;;;7.47;5.60;;;23.80;99.90;;;;;;4961157;28;20860;-91
2022/06/22 13:14:29;;;;;;;32.90;29.83;;;23.70;99.90;;;;;;4957013;28;20434;-90
2022/06/22 13:17:29;;;;;;;49.27;44.87;;;23.70;99.90;;;;;;4978471;28;20453;-93
2022/06/22 13:20:32;;;;;;;8.80;6.20;;;23.60;99.90;;;;;;4969643;28;20440;-92
2022/06/22 13:23:16;;;;;;;12.83;6.40;;;23.70;99.90;;;;;;4978571;28;20473;-95
2022/06/22 13:25:52;;;;;;;9.43;6.10;;;23.70;99.90;;;;;;4972156;28;20508;-91
2022/06/22 13:28:29;;;;;;;8.90;5.93;;;23.60;99.90;;;;;;4974050;28;20452;-93
2022/06/22 13:31:10;;;;;;;10.00;5.97;;;23.80;99.90;;;;;;4958775;28;20444;-94
2022/06/22 13:33:50;;;;;;;10.70;6.10;;;24.20;99.90;;;;;;4945116;28;20446;-94
2022/06/22 13:36:53;;;;;;;7.57;5.20;;;24.40;99.90;;;;;;4964595;28;21000;-94
2022/06/22 13:39:44;;;;;;;9.00;5.20;;;24.70;99.90;;;;;;4959779;28;20886;-94
2022/06/22 13:42:34;;;;;;;10.80;4.60;;;25.40;99.90;;;;;;4976001;28;20448;-92
2022/06/22 13:45:12;;;;;;;13.67;4.63;;;26.40;99.90;;;;;;4952509;28;20439;-89
2022/06/22 13:48:03;;;;;;;8.53;5.10;;;27.00;99.90;;;;;;4974695;28;20590;-91
2022/06/22 13:54:00;;;;;;;10.43;4.90;;;27.50;98.20;;;;;;4976931;28;20549;-93
2022/06/22 13:56:34;;;;;;;7.50;4.23;;;27.80;98.00;;;;;;4973496;28;20712;-93
2022/06/22 13:59:08;;;;;;;9.50;3.87;;;28.00;97.90;;;;;;4971705;28;20856;-94
2022/06/22 14:01:39;;;;;;;10.70;4.47;;;28.80;97.60;;;;;;4973929;28;20438;-92
2022/06/22 14:04:16;;;;;;;10.93;4.10;;;29.60;95.70;;;;;;4976323;28;20425;-92
2022/06/22 14:07:04;;;;;;;11.00;4.13;;;28.30;96.00;;;;;;4960492;28;20985;-91
2022/06/22 14:09:35;;;;;;;9.57;4.83;;;27.40;97.40;;;;;;4980969;28;20438;-93
2022/06/22 14:12:17;;;;;;;13.60;5.20;;;26.40;99.10;;;;;;4963669;28;20479;-93
2022/06/22 14:15:22;;;;;;;11.23;4.87;;;25.90;99.90;;;;;;4975583;28;20527;-92
2022/06/22 14:18:18;;;;;;;12.20;5.97;;;25.70;99.90;;;;;;4957492;28;20487;-93
2022/06/22 14:20:53;;;;;;;10.67;5.23;;;25.30;99.90;;;;;;4976316;28;20859;-96
2022/06/22 14:23:19;;;;;;;11.17;4.50;;;25.10;99.90;;;;;;4970832;28;20456;-92